sensor_id;sensor_type;location;lat;lon;timestamp;temperature;humidity
52787;DHT22;38661;53.152;5.846;2023-06-14T00:00:20;16.90;60.40
52787;DHT22;38661;53.152;5.846;2023-06-14T00:02:47;16.90;60.50
52787;DHT22;38661;53.152;5.846;2023-06-14T00:05:13;16.90;60.60
52787;DHT22;38661;53.152;5.846;2023-06-14T00:07:40;16.80;60.70
52787;DHT22;38661;53.152;5.846;2023-06-14T00:10:12;16.80;60.90
52787;DHT22;38661;53.152;5.846;2023-06-14T00:12:38;16.70;61.00
52787;DHT22;38661;53.152;5.846;2023-06-14T00:15:04;16.70;61.00
52787;DHT22;38661;53.152;5.846;2023-06-14T00:17:31;16.70;61.20
52787;DHT22;38661;53.152;5.846;2023-06-14T00:19:58;16.70;61.30
52787;DHT22;38661;53.152;5.846;2023-06-14T00:22:24;16.60;61.30
52787;DHT22;38661;53.152;5.846;2023-06-14T00:24:51;16.60;61.40
52787;DHT22;38661;53.152;5.846;2023-06-14T00:27:17;16.50;61.60
52787;DHT22;38661;53.152;5.846;2023-06-14T00:29:42;16.50;61.60
52787;DHT22;38661;53.152;5.846;2023-06-14T00:32:08;16.50;61.90
52787;DHT22;38661;53.152;5.846;2023-06-14T00:34:34;16.40;62.00
52787;DHT22;38661;53.152;5.846;2023-06-14T00:37:00;16.40;62.20
52787;DHT22;38661;53.152;5.846;2023-06-14T00:39:26;16.30;62.20
52787;DHT22;38661;53.152;5.846;2023-06-14T00:41:52;16.20;62.50
52787;DHT22;38661;53.152;5.846;2023-06-14T00:44:18;16.20;62.70
52787;DHT22;38661;53.152;5.846;2023-06-14T00:46:47;16.20;62.80
52787;DHT22;38661;53.152;5.846;2023-06-14T00:49:17;16.10;63.10
52787;DHT22;38661;53.152;5.846;2023-06-14T00:51:43;16.20;63.20
52787;DHT22;38661;53.152;5.846;2023-06-14T00:54:09;16.10;63.30
52787;DHT22;38661;53.152;5.846;2023-06-14T00:56:36;16.10;63.40
52787;DHT22;38661;53.152;5.846;2023-06-14T00:59:03;16.00;63.50
52787;DHT22;38661;53.152;5.846;2023-06-14T01:01:30;16.00;63.60
52787;DHT22;38661;53.152;5.846;2023-06-14T01:03:59;16.00;63.80
52787;DHT22;38661;53.152;5.846;2023-06-14T01:12:07;16.00;65.00
52787;DHT22;38661;53.152;5.846;2023-06-14T01:14:34;15.90;64.70
52787;DHT22;38661;53.152;5.846;2023-06-14T01:17:01;15.90;64.60
52787;DHT22;38661;53.152;5.846;2023-06-14T01:19:27;15.80;64.90
52787;DHT22;38661;53.152;5.846;2023-06-14T01:21:55;15.90;65.00
52787;DHT22;38661;53.152;5.846;2023-06-14T01:24:21;15.80;65.30
52787;DHT22;38661;53.152;5.846;2023-06-14T01:26:53;15.80;65.40
52787;DHT22;38661;53.152;5.846;2023-06-14T01:29:22;15.80;65.50
52787;DHT22;38661;53.152;5.846;2023-06-14T01:31:48;15.70;66.00
52787;DHT22;38661;53.152;5.846;2023-06-14T01:34:15;15.70;66.20
52787;DHT22;38661;53.152;5.846;2023-06-14T01:36:42;15.70;66.10
52787;DHT22;38661;53.152;5.846;2023-06-14T01:39:11;15.60;66.60
52787;DHT22;38661;53.152;5.846;2023-06-14T01:41:40;15.60;66.90
52787;DHT22;38661;53.152;5.846;2023-06-14T01:44:06;15.60;66.90
52787;DHT22;38661;53.152;5.846;2023-06-14T01:46:33;15.50;67.30
52787;DHT22;38661;53.152;5.846;2023-06-14T01:48:59;15.50;67.20
52787;DHT22;38661;53.152;5.846;2023-06-14T01:51:25;15.50;67.30
52787;DHT22;38661;53.152;5.846;2023-06-14T01:53:50;15.50;67.60
52787;DHT22;38661;53.152;5.846;2023-06-14T01:56:16;15.50;68.00
52787;DHT22;38661;53.152;5.846;2023-06-14T01:58:42;15.50;68.10
52787;DHT22;38661;53.152;5.846;2023-06-14T02:01:08;15.50;67.90
52787;DHT22;38661;53.152;5.846;2023-06-14T02:03:34;15.40;68.20
52787;DHT22;38661;53.152;5.846;2023-06-14T02:06:00;15.40;68.20
52787;DHT22;38661;53.152;5.846;2023-06-14T02:08:26;15.40;68.40
52787;DHT22;38661;53.152;5.846;2023-06-14T02:10:52;15.40;68.70
52787;DHT22;38661;53.152;5.846;2023-06-14T02:13:17;15.40;69.00
52787;DHT22;38661;53.152;5.846;2023-06-14T02:15:43;15.30;69.10
52787;DHT22;38661;53.152;5.846;2023-06-14T02:18:11;15.20;69.40
52787;DHT22;38661;53.152;5.846;2023-06-14T02:20:37;15.20;69.30
52787;DHT22;38661;53.152;5.846;2023-06-14T02:23:03;15.20;69.60
52787;DHT22;38661;53.152;5.846;2023-06-14T02:25:29;15.20;69.90
52787;DHT22;38661;53.152;5.846;2023-06-14T02:27:55;15.20;69.90
52787;DHT22;38661;53.152;5.846;2023-06-14T02:30:21;15.20;70.00
52787;DHT22;38661;53.152;5.846;2023-06-14T02:32:47;15.20;70.70
52787;DHT22;38661;53.152;5.846;2023-06-14T02:35:14;15.20;70.40
52787;DHT22;38661;53.152;5.846;2023-06-14T02:37:40;15.20;70.30
52787;DHT22;38661;53.152;5.846;2023-06-14T02:40:07;15.20;71.00
52787;DHT22;38661;53.152;5.846;2023-06-14T02:42:34;15.20;70.70
52787;DHT22;38661;53.152;5.846;2023-06-14T02:45:00;15.20;71.00
52787;DHT22;38661;53.152;5.846;2023-06-14T02:47:27;15.10;71.30
52787;DHT22;38661;53.152;5.846;2023-06-14T02:49:53;15.10;71.60
52787;DHT22;38661;53.152;5.846;2023-06-14T02:52:19;15.10;71.50
52787;DHT22;38661;53.152;5.846;2023-06-14T02:54:46;15.00;71.80
52787;DHT22;38661;53.152;5.846;2023-06-14T02:57:12;15.00;73.10
52787;DHT22;38661;53.152;5.846;2023-06-14T02:59:38;15.00;72.30
52787;DHT22;38661;53.152;5.846;2023-06-14T03:02:04;15.00;72.40
52787;DHT22;38661;53.152;5.846;2023-06-14T03:04:30;15.00;72.20
52787;DHT22;38661;53.152;5.846;2023-06-14T03:07:00;14.90;72.50
52787;DHT22;38661;53.152;5.846;2023-06-14T03:09:28;14.90;72.80
52787;DHT22;38661;53.152;5.846;2023-06-14T03:11:54;14.80;73.30
52787;DHT22;38661;53.152;5.846;2023-06-14T03:14:20;14.80;73.50
52787;DHT22;38661;53.152;5.846;2023-06-14T03:16:46;14.80;73.50
52787;DHT22;38661;53.152;5.846;2023-06-14T03:19:12;14.80;73.30
52787;DHT22;38661;53.152;5.846;2023-06-14T03:21:38;14.70;73.90
52787;DHT22;38661;53.152;5.846;2023-06-14T03:24:08;14.80;73.60
52787;DHT22;38661;53.152;5.846;2023-06-14T03:26:34;14.70;73.90
52787;DHT22;38661;53.152;5.846;2023-06-14T03:29:02;14.70;73.90
52787;DHT22;38661;53.152;5.846;2023-06-14T03:31:29;14.70;74.70
52787;DHT22;38661;53.152;5.846;2023-06-14T03:33:58;14.70;74.20
52787;DHT22;38661;53.152;5.846;2023-06-14T03:36:24;14.60;74.40
52787;DHT22;38661;53.152;5.846;2023-06-14T03:38:51;14.60;75.00
52787;DHT22;38661;53.152;5.846;2023-06-14T03:41:16;14.60;74.70
52787;DHT22;38661;53.152;5.846;2023-06-14T03:43:42;14.60;74.80
52787;DHT22;38661;53.152;5.846;2023-06-14T03:46:08;14.60;74.50
52787;DHT22;38661;53.152;5.846;2023-06-14T03:48:34;14.60;74.70
52787;DHT22;38661;53.152;5.846;2023-06-14T03:50:59;14.60;74.80
52787;DHT22;38661;53.152;5.846;2023-06-14T03:53:25;14.50;75.30
52787;DHT22;38661;53.152;5.846;2023-06-14T03:55:53;14.50;75.40
52787;DHT22;38661;53.152;5.846;2023-06-14T03:58:19;14.50;75.10
52787;DHT22;38661;53.152;5.846;2023-06-14T04:00:45;14.60;75.30
52787;DHT22;38661;53.152;5.846;2023-06-14T04:03:11;14.60;75.70
52787;DHT22;38661;53.152;5.846;2023-06-14T04:05:39;14.60;75.50
52787;DHT22;38661;53.152;5.846;2023-06-14T04:08:08;14.60;75.30
52787;DHT22;38661;53.152;5.846;2023-06-14T04:10:34;14.70;75.50
52787;DHT22;38661;53.152;5.846;2023-06-14T04:13:00;14.70;75.90
52787;DHT22;38661;53.152;5.846;2023-06-14T04:15:25;14.70;75.90
52787;DHT22;38661;53.152;5.846;2023-06-14T04:17:53;14.70;76.10
52787;DHT22;38661;53.152;5.846;2023-06-14T04:20:22;14.80;76.00
52787;DHT22;38661;53.152;5.846;2023-06-14T04:22:49;14.80;76.10
52787;DHT22;38661;53.152;5.846;2023-06-14T04:25:15;14.80;76.10
52787;DHT22;38661;53.152;5.846;2023-06-14T04:27:41;14.90;76.00
52787;DHT22;38661;53.152;5.846;2023-06-14T04:30:07;14.90;75.80
52787;DHT22;38661;53.152;5.846;2023-06-14T04:32:33;15.00;75.90
52787;DHT22;38661;53.152;5.846;2023-06-14T04:35:00;15.00;75.70
52787;DHT22;38661;53.152;5.846;2023-06-14T04:37:29;15.00;76.50
52787;DHT22;38661;53.152;5.846;2023-06-14T04:39:55;15.00;76.00
52787;DHT22;38661;53.152;5.846;2023-06-14T04:42:23;15.20;76.30
52787;DHT22;38661;53.152;5.846;2023-06-14T04:44:51;15.20;76.20
52787;DHT22;38661;53.152;5.846;2023-06-14T04:47:20;15.30;75.80
52787;DHT22;38661;53.152;5.846;2023-06-14T04:49:46;15.30;75.70
52787;DHT22;38661;53.152;5.846;2023-06-14T04:52:13;15.40;75.30
52787;DHT22;38661;53.152;5.846;2023-06-14T04:54:42;15.40;75.90
52787;DHT22;38661;53.152;5.846;2023-06-14T04:57:09;15.50;75.90
52787;DHT22;38661;53.152;5.846;2023-06-14T04:59:40;15.50;75.40
52787;DHT22;38661;53.152;5.846;2023-06-14T05:02:06;15.50;75.10
52787;DHT22;38661;53.152;5.846;2023-06-14T05:04:33;15.60;75.20
52787;DHT22;38661;53.152;5.846;2023-06-14T05:06:59;15.70;74.90
52787;DHT22;38661;53.152;5.846;2023-06-14T05:09:25;15.70;74.30
52787;DHT22;38661;53.152;5.846;2023-06-14T05:11:50;15.80;74.20
52787;DHT22;38661;53.152;5.846;2023-06-14T05:14:16;15.80;74.30
52787;DHT22;38661;53.152;5.846;2023-06-14T05:16:43;15.90;74.00
52787;DHT22;38661;53.152;5.846;2023-06-14T05:19:09;15.90;73.90
52787;DHT22;38661;53.152;5.846;2023-06-14T05:21:36;15.90;73.50
52787;DHT22;38661;53.152;5.846;2023-06-14T05:24:03;16.00;73.40
52787;DHT22;38661;53.152;5.846;2023-06-14T05:26:28;16.10;73.20
52787;DHT22;38661;53.152;5.846;2023-06-14T05:28:57;16.10;73.30
52787;DHT22;38661;53.152;5.846;2023-06-14T05:31:24;16.20;72.90
52787;DHT22;38661;53.152;5.846;2023-06-14T05:33:50;16.30;72.60
52787;DHT22;38661;53.152;5.846;2023-06-14T05:36:16;16.40;72.70
52787;DHT22;38661;53.152;5.846;2023-06-14T05:38:41;16.40;72.70
52787;DHT22;38661;53.152;5.846;2023-06-14T05:41:07;16.50;72.70
52787;DHT22;38661;53.152;5.846;2023-06-14T05:43:33;16.50;72.40
52787;DHT22;38661;53.152;5.846;2023-06-14T05:45:58;16.60;72.60
52787;DHT22;38661;53.152;5.846;2023-06-14T05:48:24;16.70;72.40
52787;DHT22;38661;53.152;5.846;2023-06-14T05:50:50;16.70;72.10
52787;DHT22;38661;53.152;5.846;2023-06-14T05:53:16;16.80;72.00
52787;DHT22;38661;53.152;5.846;2023-06-14T05:55:41;16.90;71.70
52787;DHT22;38661;53.152;5.846;2023-06-14T05:58:07;17.00;71.80
52787;DHT22;38661;53.152;5.846;2023-06-14T06:00:32;17.00;71.60
52787;DHT22;38661;53.152;5.846;2023-06-14T06:02:58;17.10;71.60
52787;DHT22;38661;53.152;5.846;2023-06-14T06:05:24;17.10;71.60
52787;DHT22;38661;53.152;5.846;2023-06-14T06:07:50;17.20;71.20
52787;DHT22;38661;53.152;5.846;2023-06-14T06:10:16;17.30;71.30
52787;DHT22;38661;53.152;5.846;2023-06-14T06:12:42;17.40;70.90
52787;DHT22;38661;53.152;5.846;2023-06-14T06:15:08;17.50;70.70
52787;DHT22;38661;53.152;5.846;2023-06-14T06:17:37;17.50;70.50
52787;DHT22;38661;53.152;5.846;2023-06-14T06:20:04;17.60;70.10
52787;DHT22;38661;53.152;5.846;2023-06-14T06:22:31;17.60;69.80
52787;DHT22;38661;53.152;5.846;2023-06-14T06:24:57;17.70;69.20
52787;DHT22;38661;53.152;5.846;2023-06-14T06:27:22;17.80;68.80
52787;DHT22;38661;53.152;5.846;2023-06-14T06:29:48;17.90;68.80
52787;DHT22;38661;53.152;5.846;2023-06-14T06:32:15;18.00;68.70
52787;DHT22;38661;53.152;5.846;2023-06-14T06:34:40;18.00;68.60
52787;DHT22;38661;53.152;5.846;2023-06-14T06:37:06;18.10;67.90
52787;DHT22;38661;53.152;5.846;2023-06-14T06:39:33;18.30;68.00
52787;DHT22;38661;53.152;5.846;2023-06-14T06:41:58;18.40;66.40
52787;DHT22;38661;53.152;5.846;2023-06-14T06:44:24;18.50;66.70
52787;DHT22;38661;53.152;5.846;2023-06-14T06:46:50;18.50;66.10
52787;DHT22;38661;53.152;5.846;2023-06-14T06:49:15;18.60;66.20
52787;DHT22;38661;53.152;5.846;2023-06-14T06:51:42;18.80;66.00
52787;DHT22;38661;53.152;5.846;2023-06-14T06:54:08;18.80;65.60
52787;DHT22;38661;53.152;5.846;2023-06-14T06:56:35;18.90;65.20
52787;DHT22;38661;53.152;5.846;2023-06-14T06:59:01;19.00;64.80
52787;DHT22;38661;53.152;5.846;2023-06-14T07:01:27;19.10;64.70
52787;DHT22;38661;53.152;5.846;2023-06-14T07:03:55;19.20;64.40
52787;DHT22;38661;53.152;5.846;2023-06-14T07:06:21;19.30;63.20
52787;DHT22;38661;53.152;5.846;2023-06-14T07:08:47;19.30;63.10
52787;DHT22;38661;53.152;5.846;2023-06-14T07:11:16;19.40;62.60
52787;DHT22;38661;53.152;5.846;2023-06-14T07:13:41;19.50;62.70
52787;DHT22;38661;53.152;5.846;2023-06-14T07:16:07;19.60;62.40
52787;DHT22;38661;53.152;5.846;2023-06-14T07:18:33;19.80;62.00
52787;DHT22;38661;53.152;5.846;2023-06-14T07:21:01;19.80;61.90
52787;DHT22;38661;53.152;5.846;2023-06-14T07:23:28;19.90;61.80
52787;DHT22;38661;53.152;5.846;2023-06-14T07:25:54;20.00;60.30
52787;DHT22;38661;53.152;5.846;2023-06-14T07:28:19;20.10;60.70
52787;DHT22;38661;53.152;5.846;2023-06-14T07:30:45;20.20;60.80
52787;DHT22;38661;53.152;5.846;2023-06-14T07:33:11;20.30;59.70
52787;DHT22;38661;53.152;5.846;2023-06-14T07:35:37;20.40;59.50
52787;DHT22;38661;53.152;5.846;2023-06-14T07:38:06;20.50;59.70
52787;DHT22;38661;53.152;5.846;2023-06-14T07:40:32;20.60;58.20
52787;DHT22;38661;53.152;5.846;2023-06-14T07:42:57;20.70;57.60
52787;DHT22;38661;53.152;5.846;2023-06-14T07:45:23;20.90;57.60
52787;DHT22;38661;53.152;5.846;2023-06-14T07:47:49;20.90;57.50
52787;DHT22;38661;53.152;5.846;2023-06-14T07:50:15;21.10;57.60
52787;DHT22;38661;53.152;5.846;2023-06-14T07:52:41;21.20;57.30
52787;DHT22;38661;53.152;5.846;2023-06-14T07:55:07;21.30;56.50
52787;DHT22;38661;53.152;5.846;2023-06-14T07:57:32;21.40;56.50
52787;DHT22;38661;53.152;5.846;2023-06-14T07:59:58;21.50;56.10
52787;DHT22;38661;53.152;5.846;2023-06-14T08:02:24;21.60;55.60
52787;DHT22;38661;53.152;5.846;2023-06-14T08:04:49;21.60;55.30
52787;DHT22;38661;53.152;5.846;2023-06-14T08:07:15;21.70;54.10
52787;DHT22;38661;53.152;5.846;2023-06-14T08:09:41;21.90;53.60
52787;DHT22;38661;53.152;5.846;2023-06-14T08:12:07;21.90;52.10
52787;DHT22;38661;53.152;5.846;2023-06-14T08:14:35;22.00;51.20
52787;DHT22;38661;53.152;5.846;2023-06-14T08:17:01;22.00;51.00
52787;DHT22;38661;53.152;5.846;2023-06-14T08:19:27;22.00;49.90
52787;DHT22;38661;53.152;5.846;2023-06-14T08:21:52;22.00;50.10
52787;DHT22;38661;53.152;5.846;2023-06-14T08:24:21;22.10;50.50
52787;DHT22;38661;53.152;5.846;2023-06-14T08:27:07;22.20;51.30
52787;DHT22;38661;53.152;5.846;2023-06-14T08:29:36;22.40;49.60
52787;DHT22;38661;53.152;5.846;2023-06-14T08:32:04;22.40;49.30
52787;DHT22;38661;53.152;5.846;2023-06-14T08:34:30;22.40;48.90
52787;DHT22;38661;53.152;5.846;2023-06-14T08:36:56;22.40;49.80
52787;DHT22;38661;53.152;5.846;2023-06-14T08:39:21;22.50;49.80
52787;DHT22;38661;53.152;5.846;2023-06-14T08:41:47;22.70;50.70
52787;DHT22;38661;53.152;5.846;2023-06-14T08:44:16;22.80;50.30
52787;DHT22;38661;53.152;5.846;2023-06-14T08:46:43;22.80;49.20
52787;DHT22;38661;53.152;5.846;2023-06-14T08:49:12;22.90;49.80
52787;DHT22;38661;53.152;5.846;2023-06-14T08:51:38;23.10;50.80
52787;DHT22;38661;53.152;5.846;2023-06-14T08:54:06;23.30;49.00
52787;DHT22;38661;53.152;5.846;2023-06-14T08:56:32;23.40;48.70
52787;DHT22;38661;53.152;5.846;2023-06-14T08:58:59;23.40;48.60
52787;DHT22;38661;53.152;5.846;2023-06-14T09:01:28;23.60;48.50
52787;DHT22;38661;53.152;5.846;2023-06-14T09:03:54;23.60;47.60
52787;DHT22;38661;53.152;5.846;2023-06-14T09:06:23;23.50;47.60
52787;DHT22;38661;53.152;5.846;2023-06-14T09:08:50;23.60;48.30
52787;DHT22;38661;53.152;5.846;2023-06-14T09:11:19;23.70;48.50
52787;DHT22;38661;53.152;5.846;2023-06-14T09:13:46;23.90;49.10
52787;DHT22;38661;53.152;5.846;2023-06-14T09:16:12;23.90;48.10
52787;DHT22;38661;53.152;5.846;2023-06-14T09:18:40;24.00;47.10
52787;DHT22;38661;53.152;5.846;2023-06-14T09:21:07;24.20;47.40
52787;DHT22;38661;53.152;5.846;2023-06-14T09:23:40;24.20;46.00
52787;DHT22;38661;53.152;5.846;2023-06-14T09:26:11;24.40;46.30
52787;DHT22;38661;53.152;5.846;2023-06-14T09:28:41;24.50;46.50
52787;DHT22;38661;53.152;5.846;2023-06-14T09:31:09;24.60;45.70
52787;DHT22;38661;53.152;5.846;2023-06-14T09:33:35;24.50;44.10
52787;DHT22;38661;53.152;5.846;2023-06-14T09:36:01;24.70;45.60
52787;DHT22;38661;53.152;5.846;2023-06-14T09:38:30;24.80;46.10
52787;DHT22;38661;53.152;5.846;2023-06-14T09:40:58;24.90;46.00
52787;DHT22;38661;53.152;5.846;2023-06-14T09:43:24;24.90;44.00
52787;DHT22;38661;53.152;5.846;2023-06-14T09:45:54;25.00;43.20
52787;DHT22;38661;53.152;5.846;2023-06-14T09:48:20;25.10;43.70
52787;DHT22;38661;53.152;5.846;2023-06-14T09:50:46;25.10;43.60
52787;DHT22;38661;53.152;5.846;2023-06-14T09:53:15;25.20;43.70
52787;DHT22;38661;53.152;5.846;2023-06-14T09:55:43;25.40;44.00
52787;DHT22;38661;53.152;5.846;2023-06-14T09:58:10;25.50;43.60
52787;DHT22;38661;53.152;5.846;2023-06-14T10:00:39;25.50;43.80
52787;DHT22;38661;53.152;5.846;2023-06-14T10:03:12;25.50;43.30
52787;DHT22;38661;53.152;5.846;2023-06-14T10:05:41;25.70;42.60
52787;DHT22;38661;53.152;5.846;2023-06-14T10:08:16;25.40;42.10
52787;DHT22;38661;53.152;5.846;2023-06-14T10:10:43;25.70;43.80
52787;DHT22;38661;53.152;5.846;2023-06-14T10:13:10;25.80;40.40
52787;DHT22;38661;53.152;5.846;2023-06-14T10:18:51;26.00;40.80
52787;DHT22;38661;53.152;5.846;2023-06-14T10:24:32;26.10;40.80
52787;DHT22;38661;53.152;5.846;2023-06-14T10:26:59;26.20;41.10
52787;DHT22;38661;53.152;5.846;2023-06-14T10:29:28;26.30;42.70
52787;DHT22;38661;53.152;5.846;2023-06-14T10:31:59;26.40;42.50
52787;DHT22;38661;53.152;5.846;2023-06-14T10:34:31;26.50;40.90
52787;DHT22;38661;53.152;5.846;2023-06-14T10:37:05;26.50;40.40
52787;DHT22;38661;53.152;5.846;2023-06-14T10:39:42;26.60;40.30
52787;DHT22;38661;53.152;5.846;2023-06-14T10:42:09;26.70;42.00
52787;DHT22;38661;53.152;5.846;2023-06-14T10:44:39;26.70;42.10
52787;DHT22;38661;53.152;5.846;2023-06-14T10:47:34;26.80;40.70
52787;DHT22;38661;53.152;5.846;2023-06-14T10:50:11;26.80;39.50
52787;DHT22;38661;53.152;5.846;2023-06-14T10:52:43;27.00;40.60
52787;DHT22;38661;53.152;5.846;2023-06-14T10:55:16;27.10;39.70
52787;DHT22;38661;53.152;5.846;2023-06-14T10:57:54;26.90;38.40
52787;DHT22;38661;53.152;5.846;2023-06-14T11:00:25;26.90;39.40
52787;DHT22;38661;53.152;5.846;2023-06-14T11:05:55;27.00;41.60
52787;DHT22;38661;53.152;5.846;2023-06-14T11:11:32;26.90;38.50
52787;DHT22;38661;53.152;5.846;2023-06-14T11:14:01;27.00;38.70
52787;DHT22;38661;53.152;5.846;2023-06-14T11:16:28;27.00;38.70
52787;DHT22;38661;53.152;5.846;2023-06-14T11:18:54;27.10;39.20
52787;DHT22;38661;53.152;5.846;2023-06-14T11:21:19;27.30;39.70
52787;DHT22;38661;53.152;5.846;2023-06-14T11:23:50;27.30;38.90
52787;DHT22;38661;53.152;5.846;2023-06-14T11:26:23;27.30;38.00
52787;DHT22;38661;53.152;5.846;2023-06-14T11:28:55;27.50;38.30
52787;DHT22;38661;53.152;5.846;2023-06-14T11:31:21;27.50;36.90
52787;DHT22;38661;53.152;5.846;2023-06-14T11:33:50;27.70;38.20
52787;DHT22;38661;53.152;5.846;2023-06-14T11:36:16;27.90;38.80
52787;DHT22;38661;53.152;5.846;2023-06-14T11:38:42;27.90;39.00
52787;DHT22;38661;53.152;5.846;2023-06-14T11:41:08;28.10;39.00
52787;DHT22;38661;53.152;5.846;2023-06-14T11:43:33;28.10;39.20
52787;DHT22;38661;53.152;5.846;2023-06-14T11:46:01;28.20;39.30
52787;DHT22;38661;53.152;5.846;2023-06-14T11:48:41;28.20;38.00
52787;DHT22;38661;53.152;5.846;2023-06-14T11:51:07;28.40;38.80
52787;DHT22;38661;53.152;5.846;2023-06-14T11:53:33;28.60;38.80
52787;DHT22;38661;53.152;5.846;2023-06-14T11:55:59;28.50;37.20
52787;DHT22;38661;53.152;5.846;2023-06-14T11:58:26;28.50;38.00
52787;DHT22;38661;53.152;5.846;2023-06-14T12:00:53;28.70;38.50
52787;DHT22;38661;53.152;5.846;2023-06-14T12:03:23;28.70;37.90
52787;DHT22;38661;53.152;5.846;2023-06-14T12:06:01;28.90;37.30
52787;DHT22;38661;53.152;5.846;2023-06-14T12:08:38;28.90;38.30
52787;DHT22;38661;53.152;5.846;2023-06-14T12:11:13;29.20;38.50
52787;DHT22;38661;53.152;5.846;2023-06-14T12:13:39;29.10;38.10
52787;DHT22;38661;53.152;5.846;2023-06-14T12:16:10;29.00;37.80
52787;DHT22;38661;53.152;5.846;2023-06-14T12:18:38;29.00;37.50
52787;DHT22;38661;53.152;5.846;2023-06-14T12:21:08;29.20;37.30
52787;DHT22;38661;53.152;5.846;2023-06-14T12:23:49;29.10;36.10
52787;DHT22;38661;53.152;5.846;2023-06-14T12:26:16;29.30;36.90
52787;DHT22;38661;53.152;5.846;2023-06-14T12:28:44;29.40;36.70
52787;DHT22;38661;53.152;5.846;2023-06-14T12:31:11;29.30;36.70
52787;DHT22;38661;53.152;5.846;2023-06-14T12:33:38;29.60;37.30
52787;DHT22;38661;53.152;5.846;2023-06-14T12:36:04;29.60;35.70
52787;DHT22;38661;53.152;5.846;2023-06-14T12:38:32;29.90;36.30
52787;DHT22;38661;53.152;5.846;2023-06-14T12:40:57;30.00;36.70
52787;DHT22;38661;53.152;5.846;2023-06-14T12:43:24;29.60;35.90
52787;DHT22;38661;53.152;5.846;2023-06-14T12:45:49;29.50;36.10
52787;DHT22;38661;53.152;5.846;2023-06-14T12:48:15;29.80;37.70
52787;DHT22;38661;53.152;5.846;2023-06-14T12:50:41;29.90;37.00
52787;DHT22;38661;53.152;5.846;2023-06-14T12:53:07;29.90;37.30
52787;DHT22;38661;53.152;5.846;2023-06-14T12:55:33;29.90;36.10
52787;DHT22;38661;53.152;5.846;2023-06-14T12:57:59;29.90;36.70
52787;DHT22;38661;53.152;5.846;2023-06-14T13:00:24;30.20;36.80
52787;DHT22;38661;53.152;5.846;2023-06-14T13:02:53;30.30;37.50
52787;DHT22;38661;53.152;5.846;2023-06-14T13:05:18;29.90;36.50
52787;DHT22;38661;53.152;5.846;2023-06-14T13:07:44;29.90;35.40
52787;DHT22;38661;53.152;5.846;2023-06-14T13:10:10;29.90;36.00
52787;DHT22;38661;53.152;5.846;2023-06-14T13:12:36;30.20;35.50
52787;DHT22;38661;53.152;5.846;2023-06-14T13:15:02;30.20;35.30
52787;DHT22;38661;53.152;5.846;2023-06-14T13:17:28;30.50;36.30
52787;DHT22;38661;53.152;5.846;2023-06-14T13:19:53;30.80;35.80
52787;DHT22;38661;53.152;5.846;2023-06-14T13:22:19;30.80;34.00
52787;DHT22;38661;53.152;5.846;2023-06-14T13:24:45;30.90;34.00
52787;DHT22;38661;53.152;5.846;2023-06-14T13:27:11;31.10;34.20
52787;DHT22;38661;53.152;5.846;2023-06-14T13:29:39;31.00;34.10
52787;DHT22;38661;53.152;5.846;2023-06-14T13:32:05;30.60;33.80
52787;DHT22;38661;53.152;5.846;2023-06-14T13:34:31;30.60;33.00
52787;DHT22;38661;53.152;5.846;2023-06-14T13:36:57;30.50;33.70
52787;DHT22;38661;53.152;5.846;2023-06-14T13:39:25;30.60;33.80
52787;DHT22;38661;53.152;5.846;2023-06-14T13:41:50;30.80;33.90
52787;DHT22;38661;53.152;5.846;2023-06-14T13:44:16;30.90;33.00
52787;DHT22;38661;53.152;5.846;2023-06-14T13:46:44;31.10;33.30
52787;DHT22;38661;53.152;5.846;2023-06-14T13:49:10;31.40;33.30
52787;DHT22;38661;53.152;5.846;2023-06-14T13:51:37;31.30;34.00
52787;DHT22;38661;53.152;5.846;2023-06-14T13:54:03;30.80;32.90
52787;DHT22;38661;53.152;5.846;2023-06-14T13:56:28;30.90;34.50
52787;DHT22;38661;53.152;5.846;2023-06-14T13:58:55;31.20;33.90
52787;DHT22;38661;53.152;5.846;2023-06-14T14:01:21;31.30;33.60
52787;DHT22;38661;53.152;5.846;2023-06-14T14:03:48;30.80;33.00
52787;DHT22;38661;53.152;5.846;2023-06-14T14:06:15;31.10;33.70
52787;DHT22;38661;53.152;5.846;2023-06-14T14:08:42;31.10;32.60
52787;DHT22;38661;53.152;5.846;2023-06-14T14:11:07;30.90;32.10
52787;DHT22;38661;53.152;5.846;2023-06-14T14:13:34;30.80;33.00
52787;DHT22;38661;53.152;5.846;2023-06-14T14:16:02;30.90;33.10
52787;DHT22;38661;53.152;5.846;2023-06-14T14:18:28;30.80;32.40
52787;DHT22;38661;53.152;5.846;2023-06-14T14:20:55;31.00;33.30
52787;DHT22;38661;53.152;5.846;2023-06-14T14:23:21;31.00;32.60
52787;DHT22;38661;53.152;5.846;2023-06-14T14:25:48;31.00;32.40
52787;DHT22;38661;53.152;5.846;2023-06-14T14:28:13;31.00;32.70
52787;DHT22;38661;53.152;5.846;2023-06-14T14:30:41;31.10;32.40
52787;DHT22;38661;53.152;5.846;2023-06-14T14:33:07;31.30;32.80
52787;DHT22;38661;53.152;5.846;2023-06-14T14:35:34;31.30;32.10
52787;DHT22;38661;53.152;5.846;2023-06-14T14:37:59;31.40;32.40
52787;DHT22;38661;53.152;5.846;2023-06-14T14:40:26;31.30;32.50
52787;DHT22;38661;53.152;5.846;2023-06-14T14:42:52;31.30;32.60
52787;DHT22;38661;53.152;5.846;2023-06-14T14:45:17;31.20;31.40
52787;DHT22;38661;53.152;5.846;2023-06-14T14:47:43;31.20;33.10
52787;DHT22;38661;53.152;5.846;2023-06-14T14:50:09;30.90;31.00
52787;DHT22;38661;53.152;5.846;2023-06-14T14:52:35;30.90;31.40
52787;DHT22;38661;53.152;5.846;2023-06-14T14:55:01;31.00;32.40
52787;DHT22;38661;53.152;5.846;2023-06-14T14:57:27;30.70;33.90
52787;DHT22;38661;53.152;5.846;2023-06-14T14:59:53;30.70;36.30
52787;DHT22;38661;53.152;5.846;2023-06-14T15:02:19;30.80;38.60
52787;DHT22;38661;53.152;5.846;2023-06-14T15:04:45;30.90;40.60
52787;DHT22;38661;53.152;5.846;2023-06-14T15:07:11;31.10;39.90
52787;DHT22;38661;53.152;5.846;2023-06-14T15:09:38;30.90;39.90
52787;DHT22;38661;53.152;5.846;2023-06-14T15:12:04;30.90;40.20
52787;DHT22;38661;53.152;5.846;2023-06-14T15:14:30;30.60;39.70
52787;DHT22;38661;53.152;5.846;2023-06-14T15:16:56;30.70;40.50
52787;DHT22;38661;53.152;5.846;2023-06-14T15:19:23;30.70;41.30
52787;DHT22;38661;53.152;5.846;2023-06-14T15:21:49;30.70;41.10
52787;DHT22;38661;53.152;5.846;2023-06-14T15:24:14;30.70;41.20
52787;DHT22;38661;53.152;5.846;2023-06-14T15:26:40;30.60;41.20
52787;DHT22;38661;53.152;5.846;2023-06-14T15:29:06;30.60;41.80
52787;DHT22;38661;53.152;5.846;2023-06-14T15:31:31;30.50;41.70
52787;DHT22;38661;53.152;5.846;2023-06-14T15:33:57;30.20;42.10
52787;DHT22;38661;53.152;5.846;2023-06-14T15:36:24;30.30;42.10
52787;DHT22;38661;53.152;5.846;2023-06-14T15:38:50;30.30;42.40
52787;DHT22;38661;53.152;5.846;2023-06-14T15:41:16;30.20;42.60
52787;DHT22;38661;53.152;5.846;2023-06-14T15:43:41;30.20;42.60
52787;DHT22;38661;53.152;5.846;2023-06-14T15:46:07;30.20;41.80